sensor_id;sensor_type;location;lat;lon;timestamp;P1;durP1;ratioP1;P2;durP2;ratioP2
59649;SDS011;46162;57.568;25.814;2023-05-07T00:01:37;5.22;;;0.50;;
59649;SDS011;46162;57.568;25.814;2023-05-07T00:04:05;5.25;;;0.40;;
59649;SDS011;46162;57.568;25.814;2023-05-07T00:06:35;3.10;;;0.88;;
59649;SDS011;46162;57.568;25.814;2023-05-07T00:09:03;3.25;;;0.68;;
59649;SDS011;46162;57.568;25.814;2023-05-07T00:11:32;4.32;;;0.70;;
59649;SDS011;46162;57.568;25.814;2023-05-07T00:14:04;5.25;;;0.75;;
59649;SDS011;46162;57.568;25.814;2023-05-07T00:16:33;3.13;;;0.70;;
59649;SDS011;46162;57.568;25.814;2023-05-07T00:19:01;3.00;;;0.52;;
59649;SDS011;46162;57.568;25.814;2023-05-07T00:21:30;2.15;;;0.60;;
59649;SDS011;46162;57.568;25.814;2023-05-07T00:23:58;2.53;;;0.35;;
59649;SDS011;46162;57.568;25.814;2023-05-07T00:26:27;2.55;;;0.52;;
59649;SDS011;46162;57.568;25.814;2023-05-07T00:28:55;3.03;;;0.50;;
59649;SDS011;46162;57.568;25.814;2023-05-07T00:31:25;4.25;;;0.50;;
59649;SDS011;46162;57.568;25.814;2023-05-07T00:33:54;2.78;;;0.47;;
59649;SDS011;46162;57.568;25.814;2023-05-07T00:36:22;2.53;;;0.38;;
59649;SDS011;46162;57.568;25.814;2023-05-07T00:38:53;2.45;;;0.50;;
59649;SDS011;46162;57.568;25.814;2023-05-07T00:41:22;3.00;;;0.70;;
59649;SDS011;46162;57.568;25.814;2023-05-07T00:43:50;2.88;;;0.55;;
59649;SDS011;46162;57.568;25.814;2023-05-07T00:46:19;4.32;;;0.45;;
59649;SDS011;46162;57.568;25.814;2023-05-07T00:48:51;3.00;;;0.32;;
59649;SDS011;46162;57.568;25.814;2023-05-07T00:51:20;5.90;;;0.60;;
59649;SDS011;46162;57.568;25.814;2023-05-07T00:53:48;3.85;;;0.85;;
59649;SDS011;46162;57.568;25.814;2023-05-07T00:56:17;2.47;;;0.43;;
59649;SDS011;46162;57.568;25.814;2023-05-07T00:58:46;3.88;;;0.60;;
59649;SDS011;46162;57.568;25.814;2023-05-07T01:01:16;3.35;;;0.30;;
59649;SDS011;46162;57.568;25.814;2023-05-07T01:03:45;2.00;;;0.30;;
59649;SDS011;46162;57.568;25.814;2023-05-07T01:06:15;4.80;;;0.50;;
59649;SDS011;46162;57.568;25.814;2023-05-07T01:08:45;3.40;;;0.50;;
59649;SDS011;46162;57.568;25.814;2023-05-07T01:11:14;3.42;;;0.73;;
59649;SDS011;46162;57.568;25.814;2023-05-07T01:13:43;4.22;;;0.82;;
59649;SDS011;46162;57.568;25.814;2023-05-07T01:16:12;3.00;;;0.80;;
59649;SDS011;46162;57.568;25.814;2023-05-07T01:18:41;3.08;;;0.73;;
59649;SDS011;46162;57.568;25.814;2023-05-07T01:21:10;4.50;;;0.93;;
59649;SDS011;46162;57.568;25.814;2023-05-07T01:23:40;4.20;;;0.98;;
59649;SDS011;46162;57.568;25.814;2023-05-07T01:26:09;5.65;;;1.00;;
59649;SDS011;46162;57.568;25.814;2023-05-07T01:28:38;4.40;;;1.25;;
59649;SDS011;46162;57.568;25.814;2023-05-07T01:31:07;3.38;;;0.95;;
59649;SDS011;46162;57.568;25.814;2023-05-07T01:33:37;4.45;;;0.90;;
59649;SDS011;46162;57.568;25.814;2023-05-07T01:36:08;4.80;;;1.20;;
59649;SDS011;46162;57.568;25.814;2023-05-07T01:38:38;4.25;;;1.00;;
59649;SDS011;46162;57.568;25.814;2023-05-07T01:41:10;4.95;;;0.90;;
59649;SDS011;46162;57.568;25.814;2023-05-07T01:43:40;3.95;;;0.73;;
59649;SDS011;46162;57.568;25.814;2023-05-07T01:46:10;3.03;;;1.08;;
59649;SDS011;46162;57.568;25.814;2023-05-07T01:48:40;3.38;;;1.17;;
59649;SDS011;46162;57.568;25.814;2023-05-07T01:51:12;6.47;;;1.17;;
59649;SDS011;46162;57.568;25.814;2023-05-07T01:53:42;4.93;;;1.30;;
59649;SDS011;46162;57.568;25.814;2023-05-07T01:56:12;4.55;;;1.58;;
59649;SDS011;46162;57.568;25.814;2023-05-07T01:58:41;3.65;;;1.15;;
59649;SDS011;46162;57.568;25.814;2023-05-07T02:01:10;4.65;;;1.20;;
59649;SDS011;46162;57.568;25.814;2023-05-07T02:03:39;5.85;;;1.30;;
59649;SDS011;46162;57.568;25.814;2023-05-07T02:06:16;3.67;;;1.15;;
59649;SDS011;46162;57.568;25.814;2023-05-07T02:08:46;5.95;;;1.20;;
59649;SDS011;46162;57.568;25.814;2023-05-07T02:11:15;3.88;;;1.05;;
59649;SDS011;46162;57.568;25.814;2023-05-07T02:13:44;2.95;;;0.98;;
59649;SDS011;46162;57.568;25.814;2023-05-07T02:16:12;4.60;;;0.98;;
59649;SDS011;46162;57.568;25.814;2023-05-07T02:18:41;3.97;;;1.00;;
59649;SDS011;46162;57.568;25.814;2023-05-07T02:21:10;6.22;;;1.20;;
59649;SDS011;46162;57.568;25.814;2023-05-07T02:23:39;3.65;;;1.20;;
59649;SDS011;46162;57.568;25.814;2023-05-07T02:26:10;4.72;;;1.27;;
59649;SDS011;46162;57.568;25.814;2023-05-07T02:28:39;4.20;;;1.50;;
59649;SDS011;46162;57.568;25.814;2023-05-07T02:31:07;5.63;;;1.05;;
59649;SDS011;46162;57.568;25.814;2023-05-07T02:33:36;7.63;;;1.38;;
59649;SDS011;46162;57.568;25.814;2023-05-07T02:36:07;3.55;;;1.35;;
59649;SDS011;46162;57.568;25.814;2023-05-07T02:38:42;3.63;;;0.85;;
59649;SDS011;46162;57.568;25.814;2023-05-07T02:41:12;4.70;;;1.23;;
59649;SDS011;46162;57.568;25.814;2023-05-07T02:43:41;3.78;;;0.70;;
59649;SDS011;46162;57.568;25.814;2023-05-07T02:46:10;3.00;;;0.88;;
59649;SDS011;46162;57.568;25.814;2023-05-07T02:48:42;5.20;;;1.10;;
59649;SDS011;46162;57.568;25.814;2023-05-07T02:51:11;8.02;;;1.15;;
59649;SDS011;46162;57.568;25.814;2023-05-07T02:56:10;4.07;;;0.88;;
59649;SDS011;46162;57.568;25.814;2023-05-07T02:58:40;3.97;;;1.23;;
59649;SDS011;46162;57.568;25.814;2023-05-07T03:01:10;4.07;;;0.98;;
59649;SDS011;46162;57.568;25.814;2023-05-07T03:04:00;4.13;;;1.35;;
59649;SDS011;46162;57.568;25.814;2023-05-07T03:06:29;4.03;;;1.33;;
59649;SDS011;46162;57.568;25.814;2023-05-07T03:08:58;8.07;;;1.38;;
59649;SDS011;46162;57.568;25.814;2023-05-07T03:11:27;6.68;;;1.67;;
59649;SDS011;46162;57.568;25.814;2023-05-07T03:13:57;6.78;;;1.65;;
59649;SDS011;46162;57.568;25.814;2023-05-07T03:16:26;5.00;;;1.45;;
59649;SDS011;46162;57.568;25.814;2023-05-07T03:18:55;3.53;;;1.27;;
59649;SDS011;46162;57.568;25.814;2023-05-07T03:21:23;3.88;;;1.45;;
59649;SDS011;46162;57.568;25.814;2023-05-07T03:23:53;5.60;;;1.65;;
59649;SDS011;46162;57.568;25.814;2023-05-07T03:26:22;4.85;;;1.40;;
59649;SDS011;46162;57.568;25.814;2023-05-07T03:28:50;5.13;;;1.85;;
59649;SDS011;46162;57.568;25.814;2023-05-07T03:31:21;3.70;;;1.52;;
59649;SDS011;46162;57.568;25.814;2023-05-07T03:33:50;4.40;;;1.47;;
59649;SDS011;46162;57.568;25.814;2023-05-07T03:36:20;6.30;;;1.52;;
59649;SDS011;46162;57.568;25.814;2023-05-07T03:38:49;7.88;;;1.95;;
59649;SDS011;46162;57.568;25.814;2023-05-07T03:41:21;4.40;;;1.40;;
59649;SDS011;46162;57.568;25.814;2023-05-07T03:43:50;5.47;;;1.23;;
59649;SDS011;46162;57.568;25.814;2023-05-07T03:46:20;4.30;;;1.83;;
59649;SDS011;46162;57.568;25.814;2023-05-07T03:48:50;8.18;;;1.63;;
59649;SDS011;46162;57.568;25.814;2023-05-07T03:51:19;4.80;;;1.58;;
59649;SDS011;46162;57.568;25.814;2023-05-07T03:53:49;5.60;;;1.23;;
59649;SDS011;46162;57.568;25.814;2023-05-07T03:56:20;3.25;;;1.08;;
59649;SDS011;46162;57.568;25.814;2023-05-07T03:58:53;6.35;;;2.05;;
59649;SDS011;46162;57.568;25.814;2023-05-07T04:01:23;6.72;;;1.50;;
59649;SDS011;46162;57.568;25.814;2023-05-07T04:06:22;5.38;;;1.65;;
59649;SDS011;46162;57.568;25.814;2023-05-07T04:08:52;4.63;;;1.08;;
59649;SDS011;46162;57.568;25.814;2023-05-07T04:11:21;4.78;;;1.55;;
59649;SDS011;46162;57.568;25.814;2023-05-07T04:13:50;7.15;;;2.13;;
59649;SDS011;46162;57.568;25.814;2023-05-07T04:16:22;3.80;;;1.63;;
59649;SDS011;46162;57.568;25.814;2023-05-07T04:18:52;4.65;;;1.15;;
59649;SDS011;46162;57.568;25.814;2023-05-07T04:21:21;4.40;;;1.50;;
59649;SDS011;46162;57.568;25.814;2023-05-07T04:23:50;4.85;;;1.70;;
59649;SDS011;46162;57.568;25.814;2023-05-07T04:26:19;6.85;;;1.85;;
59649;SDS011;46162;57.568;25.814;2023-05-07T04:28:48;5.40;;;1.23;;
59649;SDS011;46162;57.568;25.814;2023-05-07T04:31:17;4.55;;;1.50;;
59649;SDS011;46162;57.568;25.814;2023-05-07T04:33:52;6.05;;;1.55;;
59649;SDS011;46162;57.568;25.814;2023-05-07T04:36:21;5.03;;;1.63;;
59649;SDS011;46162;57.568;25.814;2023-05-07T04:39:04;4.97;;;1.70;;
59649;SDS011;46162;57.568;25.814;2023-05-07T04:41:35;5.82;;;1.70;;
59649;SDS011;46162;57.568;25.814;2023-05-07T04:44:05;5.13;;;1.95;;
59649;SDS011;46162;57.568;25.814;2023-05-07T04:46:34;6.03;;;2.00;;
59649;SDS011;46162;57.568;25.814;2023-05-07T04:49:04;4.72;;;1.52;;
59649;SDS011;46162;57.568;25.814;2023-05-07T04:51:33;4.60;;;2.03;;
59649;SDS011;46162;57.568;25.814;2023-05-07T04:54:02;6.65;;;2.60;;
59649;SDS011;46162;57.568;25.814;2023-05-07T04:56:31;5.25;;;2.28;;
59649;SDS011;46162;57.568;25.814;2023-05-07T04:59:01;7.68;;;2.40;;
59649;SDS011;46162;57.568;25.814;2023-05-07T05:01:30;5.05;;;2.45;;
59649;SDS011;46162;57.568;25.814;2023-05-07T05:03:59;11.20;;;3.00;;
59649;SDS011;46162;57.568;25.814;2023-05-07T05:06:30;6.15;;;2.47;;
59649;SDS011;46162;57.568;25.814;2023-05-07T05:09:01;6.07;;;2.17;;
59649;SDS011;46162;57.568;25.814;2023-05-07T05:11:32;3.92;;;2.08;;
59649;SDS011;46162;57.568;25.814;2023-05-07T05:14:01;6.20;;;2.03;;
59649;SDS011;46162;57.568;25.814;2023-05-07T05:16:30;4.45;;;1.80;;
59649;SDS011;46162;57.568;25.814;2023-05-07T05:18:59;5.68;;;1.73;;
59649;SDS011;46162;57.568;25.814;2023-05-07T05:21:30;6.63;;;2.15;;
59649;SDS011;46162;57.568;25.814;2023-05-07T05:24:05;7.28;;;1.92;;
59649;SDS011;46162;57.568;25.814;2023-05-07T05:26:34;7.35;;;1.92;;
59649;SDS011;46162;57.568;25.814;2023-05-07T05:29:04;4.25;;;1.48;;
59649;SDS011;46162;57.568;25.814;2023-05-07T05:31:34;7.32;;;1.80;;
59649;SDS011;46162;57.568;25.814;2023-05-07T05:34:03;4.70;;;1.50;;
59649;SDS011;46162;57.568;25.814;2023-05-07T05:36:33;5.38;;;1.60;;
59649;SDS011;46162;57.568;25.814;2023-05-07T05:39:02;3.80;;;1.55;;
59649;SDS011;46162;57.568;25.814;2023-05-07T05:41:32;4.75;;;1.50;;
59649;SDS011;46162;57.568;25.814;2023-05-07T05:44:02;6.47;;;1.60;;
59649;SDS011;46162;57.568;25.814;2023-05-07T05:46:31;6.22;;;1.60;;
59649;SDS011;46162;57.568;25.814;2023-05-07T05:49:02;5.13;;;1.48;;
59649;SDS011;46162;57.568;25.814;2023-05-07T05:51:32;6.28;;;1.27;;
59649;SDS011;46162;57.568;25.814;2023-05-07T05:54:02;3.40;;;1.05;;
59649;SDS011;46162;57.568;25.814;2023-05-07T05:56:32;4.63;;;1.20;;
59649;SDS011;46162;57.568;25.814;2023-05-07T05:59:01;3.50;;;1.45;;
59649;SDS011;46162;57.568;25.814;2023-05-07T06:01:30;3.95;;;1.20;;
59649;SDS011;46162;57.568;25.814;2023-05-07T06:06:30;3.10;;;0.95;;
59649;SDS011;46162;57.568;25.814;2023-05-07T06:09:01;4.73;;;0.57;;
59649;SDS011;46162;57.568;25.814;2023-05-07T06:11:36;2.85;;;0.50;;
59649;SDS011;46162;57.568;25.814;2023-05-07T06:14:07;4.45;;;0.50;;
59649;SDS011;46162;57.568;25.814;2023-05-07T06:16:35;3.83;;;0.50;;
59649;SDS011;46162;57.568;25.814;2023-05-07T06:19:06;4.53;;;0.80;;
59649;SDS011;46162;57.568;25.814;2023-05-07T06:21:36;3.30;;;0.50;;
59649;SDS011;46162;57.568;25.814;2023-05-07T06:24:06;3.28;;;0.60;;
59649;SDS011;46162;57.568;25.814;2023-05-07T06:26:37;3.75;;;0.70;;
59649;SDS011;46162;57.568;25.814;2023-05-07T06:29:06;2.20;;;0.60;;
59649;SDS011;46162;57.568;25.814;2023-05-07T06:31:35;2.75;;;0.50;;
59649;SDS011;46162;57.568;25.814;2023-05-07T06:34:07;2.55;;;0.40;;
59649;SDS011;46162;57.568;25.814;2023-05-07T06:36:37;2.30;;;0.32;;
59649;SDS011;46162;57.568;25.814;2023-05-07T06:39:19;3.22;;;0.40;;
59649;SDS011;46162;57.568;25.814;2023-05-07T06:41:48;2.10;;;0.43;;
59649;SDS011;46162;57.568;25.814;2023-05-07T06:44:24;3.95;;;0.52;;
59649;SDS011;46162;57.568;25.814;2023-05-07T06:47:07;2.13;;;0.20;;
59649;SDS011;46162;57.568;25.814;2023-05-07T06:49:39;3.30;;;0.22;;
59649;SDS011;46162;57.568;25.814;2023-05-07T06:52:07;2.10;;;0.20;;
59649;SDS011;46162;57.568;25.814;2023-05-07T06:54:38;3.10;;;0.30;;
59649;SDS011;46162;57.568;25.814;2023-05-07T06:57:07;3.97;;;0.40;;
59649;SDS011;46162;57.568;25.814;2023-05-07T06:59:35;1.52;;;0.30;;
59649;SDS011;46162;57.568;25.814;2023-05-07T07:02:04;1.63;;;0.20;;
59649;SDS011;46162;57.568;25.814;2023-05-07T07:04:33;4.65;;;0.50;;
59649;SDS011;46162;57.568;25.814;2023-05-07T07:07:05;3.55;;;0.43;;
59649;SDS011;46162;57.568;25.814;2023-05-07T07:09:34;2.55;;;0.30;;
59649;SDS011;46162;57.568;25.814;2023-05-07T07:12:06;3.67;;;0.30;;
59649;SDS011;46162;57.568;25.814;2023-05-07T07:14:37;2.22;;;0.22;;
59649;SDS011;46162;57.568;25.814;2023-05-07T07:17:06;2.95;;;0.20;;
59649;SDS011;46162;57.568;25.814;2023-05-07T07:19:35;3.60;;;0.35;;
59649;SDS011;46162;57.568;25.814;2023-05-07T07:22:04;3.65;;;0.57;;
59649;SDS011;46162;57.568;25.814;2023-05-07T07:24:33;2.83;;;0.40;;
59649;SDS011;46162;57.568;25.814;2023-05-07T07:27:06;2.10;;;0.20;;
59649;SDS011;46162;57.568;25.814;2023-05-07T07:29:35;2.33;;;0.20;;
59649;SDS011;46162;57.568;25.814;2023-05-07T07:32:03;1.50;;;0.20;;
59649;SDS011;46162;57.568;25.814;2023-05-07T07:34:32;2.50;;;0.15;;
59649;SDS011;46162;57.568;25.814;2023-05-07T07:37:01;1.58;;;0.20;;
59649;SDS011;46162;57.568;25.814;2023-05-07T07:39:34;1.33;;;0.20;;
59649;SDS011;46162;57.568;25.814;2023-05-07T07:42:07;3.08;;;0.25;;
59649;SDS011;46162;57.568;25.814;2023-05-07T07:44:37;2.95;;;0.10;;
59649;SDS011;46162;57.568;25.814;2023-05-07T07:49:37;2.75;;;0.20;;
59649;SDS011;46162;57.568;25.814;2023-05-07T07:52:08;3.63;;;0.20;;
59649;SDS011;46162;57.568;25.814;2023-05-07T07:54:38;2.08;;;0.10;;
59649;SDS011;46162;57.568;25.814;2023-05-07T07:57:08;2.38;;;0.17;;
59649;SDS011;46162;57.568;25.814;2023-05-07T07:59:37;1.63;;;0.30;;
59649;SDS011;46162;57.568;25.814;2023-05-07T08:02:07;4.07;;;0.23;;
59649;SDS011;46162;57.568;25.814;2023-05-07T08:04:36;5.80;;;0.30;;
59649;SDS011;46162;57.568;25.814;2023-05-07T08:07:06;3.28;;;0.20;;
59649;SDS011;46162;57.568;25.814;2023-05-07T08:09:38;2.88;;;0.20;;
59649;SDS011;46162;57.568;25.814;2023-05-07T08:12:10;4.60;;;0.20;;
59649;SDS011;46162;57.568;25.814;2023-05-07T08:14:39;3.57;;;0.10;;
59649;SDS011;46162;57.568;25.814;2023-05-07T08:17:08;6.15;;;0.20;;
59649;SDS011;46162;57.568;25.814;2023-05-07T08:19:37;1.70;;;0.20;;
59649;SDS011;46162;57.568;25.814;2023-05-07T08:22:10;2.17;;;0.20;;
59649;SDS011;46162;57.568;25.814;2023-05-07T08:24:38;3.95;;;0.15;;
59649;SDS011;46162;57.568;25.814;2023-05-07T08:27:10;2.90;;;0.28;;
59649;SDS011;46162;57.568;25.814;2023-05-07T08:29:40;2.50;;;0.10;;
59649;SDS011;46162;57.568;25.814;2023-05-07T08:32:09;2.25;;;0.20;;
59649;SDS011;46162;57.568;25.814;2023-05-07T08:34:38;4.47;;;0.20;;
59649;SDS011;46162;57.568;25.814;2023-05-07T08:37:07;2.35;;;0.20;;
59649;SDS011;46162;57.568;25.814;2023-05-07T08:39:36;3.75;;;0.20;;
59649;SDS011;46162;57.568;25.814;2023-05-07T08:42:11;1.27;;;0.17;;
59649;SDS011;46162;57.568;25.814;2023-05-07T08:44:45;2.25;;;0.20;;
59649;SDS011;46162;57.568;25.814;2023-05-07T08:47:16;2.15;;;0.20;;
59649;SDS011;46162;57.568;25.814;2023-05-07T08:49:49;2.35;;;0.20;;
59649;SDS011;46162;57.568;25.814;2023-05-07T08:52:18;2.42;;;0.20;;
59649;SDS011;46162;57.568;25.814;2023-05-07T08:54:48;3.65;;;0.10;;
59649;SDS011;46162;57.568;25.814;2023-05-07T08:57:18;2.10;;;0.10;;
59649;SDS011;46162;57.568;25.814;2023-05-07T08:59:48;2.88;;;0.25;;
59649;SDS011;46162;57.568;25.814;2023-05-07T09:02:17;4.25;;;0.30;;
59649;SDS011;46162;57.568;25.814;2023-05-07T09:04:46;5.40;;;0.10;;
59649;SDS011;46162;57.568;25.814;2023-05-07T09:07:15;4.57;;;0.65;;
59649;SDS011;46162;57.568;25.814;2023-05-07T09:09:44;2.72;;;0.20;;
59649;SDS011;46162;57.568;25.814;2023-05-07T09:12:14;1.77;;;0.10;;
59649;SDS011;46162;57.568;25.814;2023-05-07T09:14:44;2.22;;;0.30;;
59649;SDS011;46162;57.568;25.814;2023-05-07T09:17:15;1.75;;;0.10;;
59649;SDS011;46162;57.568;25.814;2023-05-07T09:19:43;3.03;;;0.20;;
59649;SDS011;46162;57.568;25.814;2023-05-07T09:22:14;1.77;;;0.10;;
59649;SDS011;46162;57.568;25.814;2023-05-07T09:24:57;1.83;;;0.20;;
59649;SDS011;46162;57.568;25.814;2023-05-07T09:27:27;3.95;;;0.47;;
59649;SDS011;46162;57.568;25.814;2023-05-07T09:29:58;2.00;;;0.10;;
59649;SDS011;46162;57.568;25.814;2023-05-07T09:32:27;3.08;;;0.20;;
59649;SDS011;46162;57.568;25.814;2023-05-07T09:34:57;2.17;;;0.20;;
59649;SDS011;46162;57.568;25.814;2023-05-07T09:37:27;2.10;;;0.10;;
59649;SDS011;46162;57.568;25.814;2023-05-07T09:39:56;3.78;;;0.20;;
59649;SDS011;46162;57.568;25.814;2023-05-07T09:42:26;2.30;;;0.10;;
59649;SDS011;46162;57.568;25.814;2023-05-07T09:45:00;1.90;;;0.30;;
59649;SDS011;46162;57.568;25.814;2023-05-07T09:47:35;2.30;;;0.20;;
59649;SDS011;46162;57.568;25.814;2023-05-07T09:50:08;1.95;;;0.10;;
59649;SDS011;46162;57.568;25.814;2023-05-07T09:52:38;2.05;;;0.13;;
59649;SDS011;46162;57.568;25.814;2023-05-07T09:55:10;5.40;;;0.52;;
59649;SDS011;46162;57.568;25.814;2023-05-07T09:57:40;2.40;;;0.25;;
59649;SDS011;46162;57.568;25.814;2023-05-07T10:02:56;1.83;;;0.20;;
59649;SDS011;46162;57.568;25.814;2023-05-07T10:05:35;4.93;;;0.25;;
59649;SDS011;46162;57.568;25.814;2023-05-07T10:08:04;2.67;;;0.20;;
59649;SDS011;46162;57.568;25.814;2023-05-07T10:10:36;2.13;;;0.10;;
59649;SDS011;46162;57.568;25.814;2023-05-07T10:13:08;3.30;;;0.20;;
59649;SDS011;46162;57.568;25.814;2023-05-07T10:15:44;2.72;;;0.10;;
59649;SDS011;46162;57.568;25.814;2023-05-07T10:18:14;3.83;;;0.20;;
59649;SDS011;46162;57.568;25.814;2023-05-07T10:20:47;4.22;;;0.10;;
59649;SDS011;46162;57.568;25.814;2023-05-07T10:23:22;5.50;;;0.30;;
59649;SDS011;46162;57.568;25.814;2023-05-07T10:25:55;3.58;;;0.20;;
59649;SDS011;46162;57.568;25.814;2023-05-07T10:28:30;4.43;;;0.25;;
59649;SDS011;46162;57.568;25.814;2023-05-07T10:31:15;3.65;;;0.20;;
59649;SDS011;46162;57.568;25.814;2023-05-07T10:34:00;1.05;;;0.10;;
59649;SDS011;46162;57.568;25.814;2023-05-07T10:36:35;1.27;;;0.20;;
59649;SDS011;46162;57.568;25.814;2023-05-07T10:39:05;4.57;;;0.10;;
59649;SDS011;46162;57.568;25.814;2023-05-07T10:41:35;2.17;;;0.10;;
59649;SDS011;46162;57.568;25.814;2023-05-07T10:44:03;3.70;;;0.10;;
59649;SDS011;46162;57.568;25.814;2023-05-07T10:46:36;2.47;;;0.10;;
59649;SDS011;46162;57.568;25.814;2023-05-07T10:49:19;2.90;;;0.25;;
59649;SDS011;46162;57.568;25.814;2023-05-07T10:52:12;7.22;;;0.10;;
59649;SDS011;46162;57.568;25.814;2023-05-07T10:58:28;3.78;;;0.20;;
59649;SDS011;46162;57.568;25.814;2023-05-07T11:01:18;1.90;;;0.10;;
59649;SDS011;46162;57.568;25.814;2023-05-07T11:04:32;4.25;;;0.20;;
59649;SDS011;46162;57.568;25.814;2023-05-07T11:10:08;1.92;;;0.20;;
59649;SDS011;46162;57.568;25.814;2023-05-07T11:12:50;5.15;;;0.10;;
59649;SDS011;46162;57.568;25.814;2023-05-07T11:18:21;1.75;;;0.10;;
59649;SDS011;46162;57.568;25.814;2023-05-07T11:20:53;7.20;;;0.20;;
59649;SDS011;46162;57.568;25.814;2023-05-07T11:26:42;3.53;;;0.10;;
59649;SDS011;46162;57.568;25.814;2023-05-07T11:29:14;2.78;;;0.20;;
59649;SDS011;46162;57.568;25.814;2023-05-07T11:31:50;5.72;;;0.10;;
59649;SDS011;46162;57.568;25.814;2023-05-07T11:34:23;2.33;;;0.20;;
59649;SDS011;46162;57.568;25.814;2023-05-07T11:36:54;1.35;;;0.10;;
59649;SDS011;46162;57.568;25.814;2023-05-07T11:39:50;2.03;;;0.10;;
59649;SDS011;46162;57.568;25.814;2023-05-07T11:42:27;3.38;;;0.10;;
59649;SDS011;46162;57.568;25.814;2023-05-07T11:44:56;3.13;;;0.10;;
59649;SDS011;46162;57.568;25.814;2023-05-07T11:47:26;3.40;;;0.13;;
59649;SDS011;46162;57.568;25.814;2023-05-07T11:50:02;2.33;;;0.10;;
59649;SDS011;46162;57.568;25.814;2023-05-07T11:52:32;4.63;;;0.10;;
59649;SDS011;46162;57.568;25.814;2023-05-07T11:55:02;3.10;;;0.13;;
59649;SDS011;46162;57.568;25.814;2023-05-07T11:57:32;1.88;;;0.10;;
59649;SDS011;46162;57.568;25.814;2023-05-07T12:00:02;1.38;;;0.10;;
59649;SDS011;46162;57.568;25.814;2023-05-07T12:02:44;2.75;;;0.13;;
59649;SDS011;46162;57.568;25.814;2023-05-07T12:05:15;2.90;;;0.25;;
59649;SDS011;46162;57.568;25.814;2023-05-07T12:07:44;2.72;;;0.20;;
59649;SDS011;46162;57.568;25.814;2023-05-07T12:10:12;2.45;;;0.10;;
59649;SDS011;46162;57.568;25.814;2023-05-07T12:12:41;3.17;;;0.10;;
59649;SDS011;46162;57.568;25.814;2023-05-07T12:15:15;2.10;;;0.10;;
59649;SDS011;46162;57.568;25.814;2023-05-07T12:17:44;1.85;;;0.10;;
59649;SDS011;46162;57.568;25.814;2023-05-07T12:20:13;2.78;;;0.10;;
59649;SDS011;46162;57.568;25.814;2023-05-07T12:22:43;1.50;;;0.13;;
59649;SDS011;46162;57.568;25.814;2023-05-07T12:25:18;1.60;;;0.10;;
59649;SDS011;46162;57.568;25.814;2023-05-07T12:27:51;2.65;;;0.20;;
59649;SDS011;46162;57.568;25.814;2023-05-07T12:30:20;3.22;;;0.20;;
59649;SDS011;46162;57.568;25.814;2023-05-07T12:32:51;1.85;;;0.10;;
59649;SDS011;46162;57.568;25.814;2023-05-07T12:35:27;2.58;;;0.30;;
59649;SDS011;46162;57.568;25.814;2023-05-07T12:37:56;1.95;;;0.20;;
59649;SDS011;46162;57.568;25.814;2023-05-07T12:40:35;2.75;;;0.20;;
59649;SDS011;46162;57.568;25.814;2023-05-07T12:43:04;3.13;;;0.20;;
59649;SDS011;46162;57.568;25.814;2023-05-07T12:45:36;3.08;;;0.10;;
59649;SDS011;46162;57.568;25.814;2023-05-07T12:48:06;3.03;;;0.10;;
59649;SDS011;46162;57.568;25.814;2023-05-07T12:53:07;5.93;;;0.20;;
59649;SDS011;46162;57.568;25.814;2023-05-07T12:55:42;3.17;;;0.10;;
59649;SDS011;46162;57.568;25.814;2023-05-07T12:58:16;1.75;;;0.20;;
59649;SDS011;46162;57.568;25.814;2023-05-07T13:00:47;3.72;;;0.20;;
59649;SDS011;46162;57.568;25.814;2023-05-07T13:03:24;5.03;;;0.20;;
59649;SDS011;46162;57.568;25.814;2023-05-07T13:05:57;3.58;;;0.40;;
59649;SDS011;46162;57.568;25.814;2023-05-07T13:08:27;3.28;;;0.10;;
59649;SDS011;46162;57.568;25.814;2023-05-07T13:10:57;1.70;;;0.20;;
59649;SDS011;46162;57.568;25.814;2023-05-07T13:13:26;1.63;;;0.13;;
59649;SDS011;46162;57.568;25.814;2023-05-07T13:15:58;2.85;;;0.17;;
59649;SDS011;46162;57.568;25.814;2023-05-07T13:18:27;3.55;;;0.10;;
59649;SDS011;46162;57.568;25.814;2023-05-07T13:20:59;4.47;;;0.10;;
59649;SDS011;46162;57.568;25.814;2023-05-07T13:23:28;3.47;;;0.17;;
59649;SDS011;46162;57.568;25.814;2023-05-07T13:25:57;2.63;;;0.20;;
59649;SDS011;46162;57.568;25.814;2023-05-07T13:28:29;1.63;;;0.10;;
59649;SDS011;46162;57.568;25.814;2023-05-07T13:30:58;1.92;;;0.10;;
59649;SDS011;46162;57.568;25.814;2023-05-07T13:33:26;1.30;;;0.10;;
59649;SDS011;46162;57.568;25.814;2023-05-07T13:35:55;2.33;;;0.10;;
59649;SDS011;46162;57.568;25.814;2023-05-07T13:38:26;3.72;;;0.30;;
59649;SDS011;46162;57.568;25.814;2023-05-07T13:40:54;2.78;;;0.20;;
59649;SDS011;46162;57.568;25.814;2023-05-07T13:43:24;9.82;;;0.10;;
59649;SDS011;46162;57.568;25.814;2023-05-07T13:45:52;2.78;;;0.22;;
59649;SDS011;46162;57.568;25.814;2023-05-07T13:48:21;2.30;;;0.20;;
59649;SDS011;46162;57.568;25.814;2023-05-07T13:50:49;1.98;;;0.10;;
59649;SDS011;46162;57.568;25.814;2023-05-07T13:53:18;3.00;;;0.15;;
59649;SDS011;46162;57.568;25.814;2023-05-07T13:55:48;4.43;;;0.22;;
59649;SDS011;46162;57.568;25.814;2023-05-07T13:58:16;2.53;;;0.20;;
59649;SDS011;46162;57.568;25.814;2023-05-07T14:00:45;2.55;;;0.20;;
59649;SDS011;46162;57.568;25.814;2023-05-07T14:03:13;4.53;;;0.20;;
59649;SDS011;46162;57.568;25.814;2023-05-07T14:05:42;2.05;;;0.20;;
59649;SDS011;46162;57.568;25.814;2023-05-07T14:08:13;1.85;;;0.17;;
59649;SDS011;46162;57.568;25.814;2023-05-07T14:10:42;2.80;;;0.10;;
59649;SDS011;46162;57.568;25.814;2023-05-07T14:13:12;3.92;;;0.20;;
59649;SDS011;46162;57.568;25.814;2023-05-07T14:15:40;3.42;;;0.10;;
59649;SDS011;46162;57.568;25.814;2023-05-07T14:18:13;2.10;;;0.10;;
59649;SDS011;46162;57.568;25.814;2023-05-07T14:20:41;3.38;;;0.10;;
59649;SDS011;46162;57.568;25.814;2023-05-07T14:23:13;3.40;;;0.20;;
59649;SDS011;46162;57.568;25.814;2023-05-07T14:25:41;2.45;;;0.10;;
59649;SDS011;46162;57.568;25.814;2023-05-07T14:28:11;4.38;;;0.38;;
59649;SDS011;46162;57.568;25.814;2023-05-07T14:30:40;3.08;;;0.10;;
59649;SDS011;46162;57.568;25.814;2023-05-07T14:33:09;1.98;;;0.20;;
59649;SDS011;46162;57.568;25.814;2023-05-07T14:35:37;1.92;;;0.10;;
59649;SDS011;46162;57.568;25.814;2023-05-07T14:38:06;2.90;;;0.10;;
59649;SDS011;46162;57.568;25.814;2023-05-07T14:40:35;1.65;;;0.15;;
59649;SDS011;46162;57.568;25.814;2023-05-07T14:43:03;2.15;;;0.10;;
59649;SDS011;46162;57.568;25.814;2023-05-07T14:45:33;2.85;;;0.10;;
59649;SDS011;46162;57.568;25.814;2023-05-07T14:48:02;5.25;;;0.15;;
59649;SDS011;46162;57.568;25.814;2023-05-07T14:50:31;3.13;;;0.20;;
59649;SDS011;46162;57.568;25.814;2023-05-07T14:53:00;4.43;;;0.20;;
59649;SDS011;46162;57.568;25.814;2023-05-07T14:55:28;3.67;;;0.13;;
59649;SDS011;46162;57.568;25.814;2023-05-07T14:58:00;4.70;;;0.10;;
59649;SDS011;46162;57.568;25.814;2023-05-07T15:00:29;3.20;;;0.10;;
59649;SDS011;46162;57.568;25.814;2023-05-07T15:03:03;1.58;;;0.10;;
59649;SDS011;46162;57.568;25.814;2023-05-07T15:05:34;1.20;;;0.10;;
59649;SDS011;46162;57.568;25.814;2023-05-07T15:08:03;2.33;;;0.10;;
59649;SDS011;46162;57.568;25.814;2023-05-07T15:10:34;2.28;;;0.10;;
59649;SDS011;46162;57.568;25.814;2023-05-07T15:13:08;2.08;;;0.10;;
59649;SDS011;46162;57.568;25.814;2023-05-07T15:15:41;3.70;;;0.20;;
59649;SDS011;46162;57.568;25.814;2023-05-07T15:18:12;2.90;;;0.55;;
59649;SDS011;46162;57.568;25.814;2023-05-07T15:20:41;2.05;;;0.30;;
59649;SDS011;46162;57.568;25.814;2023-05-07T15:23:10;2.15;;;0.20;;